Time;durP1;ratioP1;P1;durP2;ratioP2;P2;SDS_P1;SDS_P2;PMS_P1;PMS_P2;Temp;Humidity;BMP_temperature;BMP_pressure;BME280_temperature;BME280_humidity;BME280_pressure;Samples;Min_cycle;Max_cycle;Signal;HPM_P1;HPM_P2
2023/04/25 00:00:23;;;;;;;11.17;4.50;;;11.10;81.10;;;14.06;55.45;100556.31;5035221;28;20705;-60
2023/04/25 00:02:50;;;;;;;14.03;4.37;;;11.10;79.80;;;14.04;55.16;100556.53;5035469;28;20198;-61
2023/04/25 00:05:17;;;;;;;10.07;4.07;;;11.10;79.80;;;14.05;54.77;100563.44;5034944;28;20553;-62
2023/04/25 00:07:44;;;;;;;14.97;4.63;;;11.10;78.60;;;14.04;54.17;100561.00;5035324;28;20282;-61
2023/04/25 00:10:13;;;;;;;14.07;5.03;;;11.00;78.00;;;14.01;53.66;100558.75;5034547;28;20194;-61
2023/04/25 00:12:41;;;;;;;12.43;4.47;;;11.10;77.50;;;13.99;53.94;100566.91;5050725;28;20194;-61
2023/04/25 00:15:09;;;;;;;13.47;4.37;;;11.10;77.70;;;13.97;53.81;100558.34;5033169;28;20245;-60
2023/04/25 00:17:38;;;;;;;13.13;4.13;;;11.10;78.00;;;13.99;53.75;100569.53;5034117;28;20260;-58
2023/04/25 00:20:09;;;;;;;20.87;4.87;;;11.10;78.00;;;14.02;53.88;100571.78;5034800;28;20647;-61
2023/04/25 00:22:37;;;;;;;14.17;5.23;;;11.10;78.20;;;14.05;53.91;100573.19;5035128;28;20721;-60
2023/04/25 00:25:06;;;;;;;12.47;4.87;;;11.10;78.80;;;14.08;53.53;100570.16;5044028;28;20325;-57
2023/04/25 00:27:34;;;;;;;15.37;5.60;;;11.20;77.40;;;14.07;53.10;100574.63;5038379;28;20277;-59
2023/04/25 00:30:01;;;;;;;13.27;5.10;;;11.20;76.40;;;14.07;52.57;100579.13;5014389;28;20202;-60
2023/04/25 00:32:28;;;;;;;12.60;4.57;;;11.10;75.40;;;14.05;52.04;100575.84;5015499;28;20195;-63
2023/04/25 00:34:57;;;;;;;13.30;4.47;;;11.10;74.90;;;14.05;52.23;100581.13;5027192;28;20703;-60
2023/04/25 00:37:24;;;;;;;16.80;4.40;;;11.10;75.40;;;14.05;52.06;100578.50;5034424;28;20198;-61
2023/04/25 00:39:53;;;;;;;16.83;4.93;;;11.10;75.10;;;14.03;52.02;100572.59;5034025;28;20404;-60
2023/04/25 00:42:20;;;;;;;18.47;5.40;;;11.10;74.90;;;14.00;51.65;100573.00;5034913;28;20190;-61
2023/04/25 00:44:52;;;;;;;14.03;5.17;;;11.10;74.60;;;13.98;51.88;100580.31;5034384;28;20210;-60
2023/04/25 00:47:19;;;;;;;12.90;4.23;;;11.10;74.70;;;13.94;52.03;100582.56;5034961;28;20205;-60
2023/04/25 00:49:46;;;;;;;12.60;4.70;;;11.10;74.80;;;13.93;51.93;100580.91;5033688;28;20655;-62
2023/04/25 00:52:13;;;;;;;13.33;4.87;;;11.10;74.60;;;13.90;51.79;100591.09;5033665;28;20205;-61
2023/04/25 00:54:40;;;;;;;12.50;5.10;;;11.10;74.70;;;13.90;51.79;100588.44;5033762;28;20296;-59
2023/04/25 00:57:07;;;;;;;15.63;4.30;;;11.00;74.70;;;13.91;51.74;100584.78;5034421;28;20202;-61
2023/04/25 00:59:36;;;;;;;11.07;4.20;;;11.00;74.70;;;13.91;51.94;100596.19;5034318;28;20220;-60
2023/04/25 01:02:04;;;;;;;13.60;5.00;;;11.00;74.80;;;13.90;51.57;100593.75;5033732;28;20198;-61
2023/04/25 01:04:31;;;;;;;16.93;4.33;;;11.00;74.30;;;13.85;51.42;100594.34;5032419;28;20556;-63
2023/04/25 01:06:58;;;;;;;16.37;4.93;;;10.90;73.90;;;13.81;51.24;100594.94;5034452;28;20197;-61
2023/04/25 01:09:26;;;;;;;14.53;4.37;;;10.90;73.90;;;13.78;51.26;100595.34;5033931;28;20664;-61
2023/04/25 01:11:53;;;;;;;12.60;4.00;;;10.90;74.10;;;13.74;51.38;100599.41;5034222;28;20268;-60
2023/04/25 01:14:19;;;;;;;14.53;4.50;;;10.80;73.90;;;13.69;51.42;100596.53;5013997;28;20226;-61
2023/04/25 01:16:46;;;;;;;14.50;4.37;;;10.80;73.60;;;13.66;51.34;100597.72;5014405;28;20542;-61
2023/04/25 01:19:18;;;;;;;13.73;4.63;;;10.80;73.70;;;13.63;51.36;100594.66;5014618;28;20199;-61
2023/04/25 01:21:46;;;;;;;13.00;4.30;;;10.80;73.60;;;13.63;51.54;100597.31;5032472;28;20558;-61
2023/04/25 01:24:13;;;;;;;14.57;4.80;;;10.80;73.50;;;13.63;51.22;100598.13;5033382;28;20255;-60
2023/04/25 01:26:49;;;;;;;18.23;5.00;;;10.80;73.30;;;13.62;50.44;100606.25;5033328;28;20207;-61
2023/04/25 01:29:16;;;;;;;14.57;5.67;;;10.80;72.30;;;13.60;50.45;100608.31;5032301;28;20599;-61
2023/04/25 01:31:45;;;;;;;15.20;4.70;;;10.70;72.00;;;13.58;50.63;100611.13;5033938;28;20214;-58
2023/04/25 01:34:13;;;;;;;12.47;4.77;;;10.70;72.50;;;13.57;50.20;100614.78;5033877;28;20241;-60
2023/04/25 01:36:40;;;;;;;9.40;3.77;;;10.80;71.50;;;13.55;50.22;100617.63;5033665;28;20630;-60
2023/04/25 01:39:09;;;;;;;12.77;3.80;;;10.70;70.80;;;13.54;49.49;100620.47;5033657;28;20218;-61
2023/04/25 01:41:37;;;;;;;13.07;4.37;;;10.70;70.50;;;13.52;48.73;100623.31;5033206;28;20292;-61
2023/04/25 01:44:04;;;;;;;12.20;4.33;;;10.70;69.30;;;13.53;49.23;100624.09;5033349;28;20705;-61
2023/04/25 01:46:32;;;;;;;13.67;4.07;;;10.70;69.80;;;13.52;49.16;100628.59;5032027;28;20194;-64
2023/04/25 01:48:59;;;;;;;13.83;4.37;;;10.70;70.50;;;13.56;49.36;100632.47;5033604;28;20194;-60
2023/04/25 01:51:26;;;;;;;13.90;4.53;;;10.70;70.90;;;13.58;49.28;100637.56;5033592;28;20199;-62
2023/04/25 01:53:55;;;;;;;16.63;4.40;;;10.70;70.60;;;13.57;49.08;100641.25;5033386;28;20657;-60
2023/04/25 01:56:23;;;;;;;11.37;3.87;;;10.70;70.30;;;13.54;49.71;100647.72;5032888;28;20218;-62
2023/04/25 01:58:50;;;;;;;14.17;4.27;;;10.70;70.40;;;13.53;49.06;100646.09;5025511;28;20194;-60
2023/04/25 02:01:17;;;;;;;12.90;3.70;;;10.70;70.20;;;13.50;49.10;100646.47;5033104;28;20194;-61
2023/04/25 02:03:44;;;;;;;18.57;4.33;;;10.60;69.90;;;13.49;48.96;100652.78;5032741;28;20248;-61
2023/04/25 02:06:11;;;;;;;15.17;4.33;;;10.60;69.60;;;13.45;48.78;100651.53;5033186;28;20549;-61
2023/04/25 02:08:38;;;;;;;14.70;4.47;;;10.60;69.90;;;13.41;49.07;100658.22;5033564;28;20197;-60
2023/04/25 02:11:05;;;;;;;13.00;3.90;;;10.60;70.00;;;13.40;48.89;100661.06;5033268;28;20268;-61
2023/04/25 02:13:34;;;;;;;9.13;4.40;;;10.50;70.00;;;13.38;49.09;100674.47;5032496;28;20559;-61
2023/04/25 02:16:00;;;;;;;12.37;3.90;;;10.50;70.30;;;13.37;49.23;100662.28;5028867;28;20223;-61
2023/04/25 02:18:28;;;;;;;16.03;4.40;;;10.50;70.40;;;13.35;49.19;100663.47;5047847;28;20206;-61
2023/04/25 02:20:55;;;;;;;14.40;4.47;;;10.40;70.60;;;13.32;49.45;100661.22;5033365;28;20281;-61
2023/04/25 02:23:22;;;;;;;16.00;4.10;;;10.50;70.80;;;13.26;49.54;100668.13;5033274;28;20204;-61
2023/04/25 02:25:49;;;;;;;17.37;4.73;;;10.40;70.90;;;13.22;49.75;100661.56;5028170;28;20219;-61
2023/04/25 02:28:16;;;;;;;13.20;4.47;;;10.40;71.10;;;13.17;49.60;100666.59;5022587;28;20651;-61
2023/04/25 02:30:44;;;;;;;15.90;4.63;;;10.40;71.30;;;13.13;49.59;100664.53;5033036;28;20195;-60
2023/04/25 02:33:11;;;;;;;12.80;4.23;;;10.30;71.20;;;13.07;49.79;100671.44;5032890;28;20194;-61
2023/04/25 02:35:38;;;;;;;13.07;4.20;;;10.30;71.20;;;13.01;49.84;100664.22;5031537;28;20232;-59
2023/04/25 02:38:05;;;;;;;16.77;4.83;;;10.20;71.10;;;12.97;49.93;100660.34;5033184;28;20217;-60
2023/04/25 02:40:32;;;;;;;13.87;4.53;;;10.20;71.20;;;12.94;49.88;100666.00;5033216;28;20695;-60
2023/04/25 02:42:59;;;;;;;13.53;4.10;;;10.10;71.20;;;12.92;49.78;100654.81;5031716;28;20540;-60
2023/04/25 02:45:26;;;;;;;8.37;3.53;;;10.10;71.20;;;12.91;49.91;100646.06;5033257;28;20214;-61
2023/04/25 02:47:54;;;;;;;11.47;3.73;;;10.10;71.40;;;12.91;50.30;100653.16;5033192;28;20249;-64
2023/04/25 02:50:21;;;;;;;16.70;4.27;;;10.10;72.00;;;12.93;50.29;100647.72;5032768;28;20712;-61
2023/04/25 02:52:48;;;;;;;12.47;3.73;;;10.10;71.50;;;12.93;50.36;100651.19;5032777;28;20266;-61
2023/04/25 02:55:15;;;;;;;15.07;3.67;;;10.00;71.30;;;12.93;49.92;100649.34;5035635;28;20282;-60
2023/04/25 02:57:42;;;;;;;10.43;3.93;;;10.10;70.80;;;12.92;49.43;100649.53;5036375;28;20273;-61
2023/04/25 03:00:11;;;;;;;7.97;3.00;;;10.10;70.00;;;12.91;49.58;100655.81;5036571;28;20205;-60
2023/04/25 03:02:38;;;;;;;17.07;5.03;;;10.10;70.00;;;12.92;49.57;100644.25;5036692;28;20537;-61
2023/04/25 03:05:07;;;;;;;10.73;4.47;;;10.10;69.60;;;12.93;49.18;100648.53;5035685;28;20305;-61
2023/04/25 03:07:34;;;;;;;16.07;4.53;;;10.10;69.50;;;12.96;48.80;100658.69;5034960;28;20194;-60
2023/04/25 03:10:01;;;;;;;16.30;4.60;;;10.00;69.30;;;12.98;48.64;100645.31;5035576;28;20651;-60
2023/04/25 03:12:28;;;;;;;12.17;3.87;;;10.10;69.10;;;12.98;48.34;100656.69;5035149;28;20194;-60
2023/04/25 03:14:55;;;;;;;12.83;3.90;;;10.00;68.80;;;12.97;48.44;100652.41;5040904;28;20241;-61
2023/04/25 03:17:22;;;;;;;10.53;3.83;;;10.10;68.70;;;12.97;48.48;100660.34;5035984;28;20218;-61
2023/04/25 03:19:49;;;;;;;10.80;3.80;;;10.10;69.10;;;12.99;48.65;100666.25;5034531;28;20206;-60
2023/04/25 03:22:17;;;;;;;9.60;3.97;;;10.10;69.20;;;12.99;48.42;100660.97;5036337;28;20193;-59
2023/04/25 03:24:44;;;;;;;12.10;3.90;;;10.10;68.90;;;12.99;48.33;100668.91;5033960;28;20222;-61
2023/04/25 03:27:11;;;;;;;9.73;3.67;;;10.10;68.90;;;12.99;48.52;100674.19;5036381;28;20183;-60
2023/04/25 03:29:38;;;;;;;9.50;3.90;;;10.10;68.70;;;12.99;48.42;100673.34;5035210;28;20203;-58
2023/04/25 03:32:05;;;;;;;16.47;4.17;;;10.10;68.90;;;12.98;48.15;100664.59;5036027;28;20195;-60
2023/04/25 03:34:32;;;;;;;14.70;4.87;;;10.10;68.70;;;12.95;48.23;100662.38;5035300;28;20607;-60
2023/04/25 03:36:59;;;;;;;10.53;4.03;;;10.00;68.60;;;12.93;48.32;100669.66;5035696;28;20212;-61
2023/04/25 03:39:28;;;;;;;11.00;3.67;;;10.00;68.60;;;12.91;48.49;100679.59;5036282;28;20205;-59
2023/04/25 03:41:55;;;;;;;12.73;4.30;;;10.10;68.70;;;12.89;48.25;100673.69;5035724;28;20198;-60
2023/04/25 03:44:21;;;;;;;9.73;3.73;;;10.00;68.60;;;12.88;48.29;100672.06;5035488;28;20221;-61
2023/04/25 03:46:48;;;;;;;9.10;3.37;;;10.00;68.70;;;12.86;48.36;100677.53;5034672;28;20666;-60
2023/04/25 03:49:16;;;;;;;12.97;4.63;;;10.00;68.60;;;12.85;48.18;100685.66;5034264;28;20209;-61
2023/04/25 03:51:45;;;;;;;10.27;3.90;;;10.00;68.80;;;12.83;48.03;100685.03;5035720;28;20559;-62
2023/04/25 03:54:12;;;;;;;12.10;4.13;;;10.00;68.50;;;12.80;48.51;100690.69;5035180;28;20217;-59
2023/04/25 03:56:40;;;;;;;14.67;4.43;;;10.00;68.70;;;12.76;48.57;100686.78;5036550;28;20210;-59
2023/04/25 03:59:07;;;;;;;8.93;3.10;;;10.00;68.30;;;12.70;48.27;100695.47;5039339;28;20190;-61
2023/04/25 04:01:35;;;;;;;14.73;3.97;;;9.90;68.90;;;12.62;48.00;100703.53;5035397;28;20226;-61
2023/04/25 04:04:02;;;;;;;6.03;2.60;;;9.80;68.60;;;12.54;47.85;100690.44;5034753;28;20194;-59
2023/04/25 04:06:29;;;;;;;11.70;4.20;;;9.80;68.50;;;12.47;48.24;100700.09;5032958;28;20618;-64
2023/04/25 04:08:56;;;;;;;12.23;3.60;;;9.80;68.60;;;12.41;48.06;100698.22;5033369;28;20203;-60
2023/04/25 04:11:23;;;;;;;11.17;3.57;;;9.70;68.60;;;12.36;48.16;100703.25;5034962;28;20227;-60
2023/04/25 04:13:52;;;;;;;8.13;3.20;;;9.70;68.80;;;12.31;48.17;100710.91;5034269;28;20191;-62
2023/04/25 04:16:19;;;;;;;10.90;3.83;;;9.60;68.90;;;12.26;48.45;100708.00;5035051;28;20255;-61
2023/04/25 04:18:46;;;;;;;10.97;3.30;;;9.50;69.10;;;12.22;48.98;100718.09;5034736;28;20269;-61
2023/04/25 04:21:13;;;;;;;9.37;3.53;;;9.50;69.90;;;12.18;48.87;100712.41;5034897;28;20612;-61
2023/04/25 04:23:40;;;;;;;11.20;3.30;;;9.50;69.70;;;12.15;48.66;100727.75;5034465;28;20201;-61
2023/04/25 04:26:08;;;;;;;11.20;3.07;;;9.40;69.80;;;12.10;48.88;100722.22;5034613;28;20190;-59
2023/04/25 04:28:35;;;;;;;13.57;4.80;;;9.40;70.00;;;12.04;49.15;100726.44;5034964;28;20194;-61
2023/04/25 04:31:03;;;;;;;15.17;4.30;;;9.30;70.00;;;12.01;49.29;100737.34;5033242;28;20251;-63
2023/04/25 04:33:31;;;;;;;9.23;3.30;;;9.30;70.10;;;12.01;48.77;100737.34;5032520;28;20203;-62
2023/04/25 04:35:58;;;;;;;12.67;4.10;;;9.30;70.40;;;12.05;49.14;100740.44;5034396;28;20276;-59
2023/04/25 04:38:26;;;;;;;14.23;3.57;;;9.30;70.60;;;12.08;48.86;100748.78;5033438;28;20556;-61
2023/04/25 04:40:53;;;;;;;12.27;3.87;;;9.30;70.50;;;12.12;48.88;100755.31;5034521;28;20201;-60
2023/04/25 04:43:20;;;;;;;9.13;3.67;;;9.30;70.20;;;12.15;48.56;100754.97;5049402;28;20261;-60
2023/04/25 04:45:47;;;;;;;13.30;4.40;;;9.30;70.30;;;12.19;48.92;100756.22;5034208;28;20207;-58
2023/04/25 04:48:16;;;;;;;9.50;3.00;;;9.30;70.00;;;12.22;48.19;100763.78;5033970;28;20210;-61
2023/04/25 04:50:47;;;;;;;10.50;3.40;;;9.30;69.70;;;12.25;48.37;100757.31;5034196;28;20194;-60
2023/04/25 04:53:14;;;;;;;13.97;4.17;;;9.30;69.50;;;12.28;48.39;100759.59;5034267;28;20644;-64
2023/04/25 04:55:41;;;;;;;10.57;3.50;;;9.40;69.40;;;12.31;48.12;100763.69;5033032;28;20221;-60
2023/04/25 04:58:08;;;;;;;8.97;3.47;;;9.40;68.80;;;12.32;47.44;100765.31;5034936;28;20276;-61
2023/04/25 05:00:35;;;;;;;8.93;3.10;;;9.40;68.50;;;12.36;47.48;100766.59;5032419;28;20685;-61
2023/04/25 05:03:02;;;;;;;12.30;3.70;;;9.40;68.50;;;12.41;47.42;100769.50;5034466;28;20225;-59
2023/04/25 05:05:31;;;;;;;22.13;3.93;;;9.50;68.70;;;12.45;47.30;100768.13;5034967;28;20578;-61
2023/04/25 05:07:58;;;;;;;8.93;3.23;;;9.40;68.60;;;12.49;47.56;100772.84;5034190;28;20201;-61
2023/04/25 05:10:26;;;;;;;11.07;3.97;;;9.50;68.70;;;12.51;47.79;100775.28;5050553;28;20966;-64
2023/04/25 05:12:52;;;;;;;9.17;3.50;;;9.50;68.70;;;12.53;47.55;100782.00;5034117;28;20187;-61
2023/04/25 05:15:19;;;;;;;10.80;3.93;;;9.50;68.70;;;12.57;47.65;100779.84;5044881;28;20680;-62
2023/04/25 05:17:46;;;;;;;11.10;3.30;;;9.60;68.70;;;12.60;47.21;100785.53;5031942;28;20216;-63
2023/04/25 05:20:13;;;;;;;8.20;3.13;;;9.60;68.60;;;12.64;47.29;100783.38;5032945;28;20209;-63
2023/04/25 05:22:42;;;;;;;12.17;4.10;;;9.60;68.60;;;12.68;47.08;100771.41;5034496;28;20199;-61
2023/04/25 05:25:09;;;;;;;13.73;3.07;;;9.60;68.20;;;12.73;46.88;100782.22;5032132;28;20230;-63
2023/04/25 05:27:36;;;;;;;8.60;2.90;;;9.70;67.90;;;12.73;46.65;100779.59;5034157;28;20206;-60
2023/04/25 05:30:05;;;;;;;11.20;3.53;;;9.70;67.70;;;12.74;46.89;100786.53;5033716;28;20205;-60
2023/04/25 05:32:32;;;;;;;12.03;3.47;;;9.70;67.60;;;12.71;46.92;100795.63;5034110;28;20194;-60
2023/04/25 05:35:00;;;;;;;13.00;4.07;;;9.80;67.50;;;12.67;47.06;100793.56;5045001;28;20243;-61
2023/04/25 05:37:27;;;;;;;11.67;3.97;;;9.80;67.50;;;12.63;46.78;100795.75;5031534;28;20206;-60
2023/04/25 05:39:55;;;;;;;7.23;3.17;;;9.70;67.50;;;12.61;47.12;100792.47;5031866;28;20195;-61
2023/04/25 05:42:22;;;;;;;8.40;2.83;;;9.70;67.80;;;12.59;47.27;100793.66;5033483;28;20198;-60
2023/04/25 05:44:49;;;;;;;8.20;2.97;;;9.70;67.80;;;12.56;47.38;100804.59;5032614;28;20658;-60
2023/04/25 05:47:16;;;;;;;11.80;3.33;;;9.70;67.90;;;12.50;47.07;100802.69;5033129;28;20198;-60
2023/04/25 05:49:42;;;;;;;7.17;2.70;;;9.70;68.00;;;12.45;47.42;100802.44;5032418;28;20204;-60
2023/04/25 05:52:09;;;;;;;7.77;3.80;;;9.60;67.70;;;12.38;47.34;100804.19;5033996;28;20194;-61
2023/04/25 05:54:36;;;;;;;9.97;3.70;;;9.60;67.80;;;12.35;47.24;100807.19;5032933;28;20649;-60
2023/04/25 05:57:05;;;;;;;9.43;3.47;;;9.60;68.10;;;12.34;48.01;100813.47;5032340;28;20717;-60
2023/04/25 05:59:32;;;;;;;8.87;3.30;;;9.60;68.60;;;12.38;48.20;100815.56;5032399;28;20237;-64
2023/04/25 06:01:59;;;;;;;10.37;2.87;;;9.60;69.00;;;12.44;47.95;100813.97;5032534;28;20225;-63
2023/04/25 06:04:26;;;;;;;8.83;3.83;;;9.60;69.10;;;12.51;47.93;100815.69;5031416;28;20305;-63
2023/04/25 06:06:53;;;;;;;9.17;3.37;;;9.60;68.80;;;12.61;47.87;100818.06;5032465;28;20210;-61
2023/04/25 06:09:20;;;;;;;12.73;4.07;;;9.70;68.90;;;12.67;47.54;100827.88;5033157;28;20601;-63
2023/04/25 06:11:47;;;;;;;9.27;3.53;;;9.80;68.80;;;12.71;47.45;100824.69;5032886;28;20205;-61
2023/04/25 06:14:15;;;;;;;11.23;2.70;;;9.80;68.20;;;12.72;47.49;100821.03;5032308;28;20218;-59
2023/04/25 06:16:42;;;;;;;10.20;3.17;;;9.90;68.00;;;12.77;47.22;100817.81;5032439;28;20214;-61
2023/04/25 06:19:09;;;;;;;9.73;2.80;;;9.90;68.00;;;12.82;47.01;100828.66;5033226;28;20292;-63
2023/04/25 06:21:36;;;;;;;8.57;3.00;;;9.90;67.40;;;12.84;46.80;100831.91;5033033;28;20199;-63
2023/04/25 06:24:04;;;;;;;8.63;2.90;;;10.00;66.10;;;12.86;46.54;100836.00;5047797;28;20218;-61
2023/04/25 06:26:31;;;;;;;7.03;2.80;;;10.00;65.60;;;12.88;46.49;100830.56;5031780;28;20709;-61
2023/04/25 06:28:58;;;;;;;6.33;2.73;;;10.00;65.70;;;12.93;46.56;100836.09;5034541;28;20640;-57
2023/04/25 06:31:26;;;;;;;10.57;3.53;;;10.00;65.60;;;12.94;46.24;100827.16;5019282;28;20250;-61
2023/04/25 06:33:54;;;;;;;6.93;3.30;;;10.10;64.90;;;12.97;46.26;100831.25;5035254;28;20202;-58
2023/04/25 06:36:27;;;;;;;8.07;3.20;;;10.10;65.10;;;13.00;46.02;100834.34;5036294;28;20201;-61
2023/04/25 06:38:54;;;;;;;8.03;3.07;;;10.10;64.90;;;13.05;46.09;100831.94;5036834;28;20278;-60
2023/04/25 06:41:21;;;;;;;7.70;2.70;;;10.20;64.90;;;13.11;45.72;100841.81;5036422;28;20225;-62
2023/04/25 06:43:48;;;;;;;10.13;3.03;;;10.20;64.20;;;13.24;45.69;100846.41;5035249;28;20206;-62
2023/04/25 06:46:15;;;;;;;4.80;2.40;;;10.30;64.50;;;13.41;44.65;100848.59;5035955;28;20187;-61
2023/04/25 06:48:44;;;;;;;8.83;2.63;;;10.30;63.00;;;13.58;43.81;100839.38;5052265;28;20195;-60
2023/04/25 06:51:13;;;;;;;8.17;2.80;;;10.40;61.70;;;13.76;43.71;100851.31;5031669;28;20203;-60
2023/04/25 06:53:40;;;;;;;8.07;2.20;;;10.50;61.80;;;13.89;42.71;100849.56;5016648;28;20194;-62
2023/04/25 06:56:07;;;;;;;11.07;2.80;;;10.60;60.80;;;14.04;42.75;100854.75;5034790;28;20215;-59
2023/04/25 06:58:34;;;;;;;9.33;2.17;;;10.80;61.10;;;14.17;42.30;100854.84;5044599;28;20316;-62
2023/04/25 07:01:02;;;;;;;12.40;2.73;;;10.90;60.70;;;14.29;41.60;100863.06;5035762;28;20654;-60
2023/04/25 07:03:29;;;;;;;4.93;2.40;;;11.00;59.50;;;14.35;40.88;100849.88;5036274;28;20661;-63
2023/04/25 07:05:57;;;;;;;6.37;2.13;;;11.00;58.30;;;14.38;41.17;100857.41;5034340;28;20210;-62
2023/04/25 07:08:24;;;;;;;5.40;2.60;;;11.10;59.00;;;14.44;41.26;100867.25;5035441;28;20257;-61
2023/04/25 07:10:51;;;;;;;7.90;2.50;;;11.20;58.60;;;14.51;41.24;100878.69;5036029;28;20670;-59
2023/04/25 07:13:18;;;;;;;8.13;2.60;;;11.20;58.50;;;14.57;40.58;100871.81;5034586;28;20306;-60
2023/04/25 07:15:47;;;;;;;7.37;2.17;;;11.30;58.50;;;14.61;40.79;100868.56;5036621;28;20233;-61
2023/04/25 07:18:14;;;;;;;11.47;3.30;;;11.40;58.40;;;14.72;40.90;100873.28;5036343;28;20214;-61
2023/04/25 07:20:41;;;;;;;6.37;2.60;;;11.50;58.50;;;14.80;40.74;100878.41;5035831;28;20198;-61
2023/04/25 07:23:09;;;;;;;8.77;2.40;;;11.50;58.30;;;14.91;40.68;100875.19;5036080;28;20198;-61
2023/04/25 07:25:36;;;;;;;9.63;2.67;;;11.60;57.90;;;15.06;40.57;100874.19;5033926;28;20564;-61
2023/04/25 07:28:03;;;;;;;8.63;2.60;;;11.70;58.10;;;15.19;39.87;100876.91;5035818;28;20195;-63
2023/04/25 07:30:30;;;;;;;8.00;2.60;;;11.80;57.30;;;15.32;39.86;100871.59;5036299;28;20206;-61
2023/04/25 07:32:57;;;;;;;8.23;2.67;;;11.90;57.50;;;15.52;39.55;100873.28;5034915;28;20198;-62
2023/04/25 07:35:24;;;;;;;6.10;2.73;;;12.00;56.70;;;16.04;37.91;100876.94;5035033;28;20617;-63
2023/04/25 07:37:51;;;;;;;11.20;2.07;;;12.20;55.40;;;16.78;37.37;100890.69;5034140;28;20214;-60
2023/04/25 07:40:19;;;;;;;8.27;2.80;;;12.50;55.60;;;17.43;36.57;100890.28;5035525;28;20294;-61
2023/04/25 07:42:46;;;;;;;8.23;2.37;;;13.00;55.00;;;18.22;35.74;100887.81;5036245;28;20195;-62
2023/04/25 07:45:14;;;;;;;5.70;2.23;;;13.50;54.30;;;19.06;34.69;100884.38;5035756;28;20218;-62
2023/04/25 07:47:41;;;;;;;8.03;2.37;;;14.10;54.10;;;20.07;33.10;100885.03;5035893;28;20198;-65
2023/04/25 07:50:10;;;;;;;4.80;1.97;;;14.70;52.70;;;21.06;32.06;100889.28;5045950;28;20290;-63
2023/04/25 07:52:37;;;;;;;5.77;2.40;;;15.40;51.10;;;21.75;29.14;100887.28;5034881;28;20277;-61
2023/04/25 07:55:05;;;;;;;5.07;2.40;;;16.00;46.30;;;22.30;28.11;100879.28;5034641;28;20221;-62
2023/04/25 07:57:33;;;;;;;7.07;2.30;;;16.50;45.00;;;22.84;27.27;100881.03;5034413;28;20219;-61
2023/04/25 08:00:00;;;;;;;6.23;2.57;;;17.10;43.00;;;23.21;26.56;100881.16;5034768;28;20221;-62
2023/04/25 08:02:28;;;;;;;8.57;2.27;;;17.60;41.60;;;23.21;26.25;100886.53;5033562;28;20201;-60
2023/04/25 08:04:55;;;;;;;4.03;1.90;;;17.90;40.00;;;22.73;26.63;100893.53;5033922;28;20219;-65
2023/04/25 08:07:22;;;;;;;5.87;2.13;;;18.00;39.30;;;22.10;26.56;100890.53;5034355;28;20191;-61
2023/04/25 08:09:49;;;;;;;8.77;2.13;;;18.00;38.80;;;21.35;26.99;100900.78;5034808;28;20656;-63
2023/04/25 08:12:16;;;;;;;5.30;2.57;;;17.70;37.90;;;20.66;27.95;100904.50;5033614;28;20222;-63
2023/04/25 08:14:44;;;;;;;5.17;2.27;;;17.30;38.70;;;20.01;28.22;100903.88;5033812;28;20218;-63
2023/04/25 08:17:13;;;;;;;7.90;3.00;;;16.80;38.10;;;19.39;29.03;100918.63;5034933;28;20233;-61
2023/04/25 08:19:43;;;;;;;6.30;2.20;;;16.30;39.00;;;18.79;29.91;100918.56;5034971;28;20186;-61
2023/04/25 08:22:10;;;;;;;9.27;3.37;;;15.90;40.00;;;18.30;31.08;100925.84;5034579;28;20194;-61
2023/04/25 08:24:37;;;;;;;8.30;3.47;;;15.50;41.70;;;17.89;32.07;100947.75;5049563;28;20233;-61
2023/04/25 08:27:07;;;;;;;8.17;2.80;;;15.10;43.30;;;17.49;33.95;100947.19;5034934;28;20194;-60
2023/04/25 08:29:34;;;;;;;7.50;3.40;;;14.70;46.70;;;17.11;35.42;100947.19;5034490;28;20195;-63
2023/04/25 08:32:03;;;;;;;5.53;2.03;;;14.40;49.10;;;16.80;35.84;100947.09;5034486;28;20226;-64
2023/04/25 08:34:30;;;;;;;7.07;2.27;;;14.00;49.70;;;16.50;36.54;100940.59;5033923;28;20245;-62
2023/04/25 08:36:56;;;;;;;4.67;1.73;;;13.70;49.60;;;16.24;35.96;100958.22;5034420;28;20202;-60
2023/04/25 08:39:24;;;;;;;2.07;1.30;;;13.40;48.50;;;16.00;35.69;100950.06;5034697;28;20203;-62
2023/04/25 08:41:52;;;;;;;5.20;1.70;;;13.20;48.10;;;15.84;35.79;100953.94;5032789;28;20186;-59
2023/04/25 08:44:20;;;;;;;7.03;1.97;;;12.90;48.70;;;15.73;35.77;100959.88;5034013;28;20211;-61
2023/04/25 08:46:49;;;;;;;4.43;1.60;;;12.80;49.30;;;15.67;36.04;100965.97;5029965;28;20186;-63
2023/04/25 08:49:18;;;;;;;5.00;1.90;;;12.60;49.50;;;15.67;35.99;100965.97;5034675;28;20202;-62
2023/04/25 08:51:47;;;;;;;4.77;1.73;;;12.50;49.30;;;15.76;35.71;100975.38;5033360;28;20195;-61
2023/04/25 08:54:15;;;;;;;4.33;1.23;;;12.50;50.00;;;15.81;35.74;100975.56;5033664;28;20210;-61
2023/04/25 08:57:03;;;;;;;5.50;1.93;;;12.50;49.60;;;15.97;35.55;100977.03;4999311;28;20195;-58
2023/04/25 08:59:33;;;;;;;5.90;2.20;;;12.50;50.50;;;16.21;35.53;100979.09;5022672;28;20628;-63
2023/04/25 09:02:01;;;;;;;5.82;1.95;;;12.60;50.00;;;16.91;34.23;100986.31;5032085;28;20509;-63
2023/04/25 09:04:31;;;;;;;4.27;1.87;;;12.70;49.80;;;17.28;33.81;100980.22;5031894;28;20312;-61
2023/04/25 09:06:58;;;;;;;1.83;1.40;;;13.00;49.10;;;18.11;32.60;100978.31;5033684;28;20578;-63
2023/04/25 09:09:25;;;;;;;4.93;1.85;;;13.40;48.50;;;19.84;30.54;100980.41;5033330;28;20434;-65
2023/04/25 09:11:54;;;;;;;5.00;1.60;;;14.10;48.90;;;21.90;28.81;100992.06;5033491;28;20659;-61
2023/04/25 09:14:25;;;;;;;6.27;1.83;;;14.90;48.00;;;22.72;26.49;100990.41;5020915;28;20293;-62
2023/04/25 09:17:01;;;;;;;2.90;1.63;;;15.80;43.70;;;22.79;25.60;100991.88;5033867;28;20225;-63
2023/04/25 09:19:34;;;;;;;5.83;1.93;;;16.50;40.40;;;22.72;25.62;100993.91;5049591;28;20232;-61
2023/04/25 09:22:08;;;;;;;3.47;1.83;;;17.00;40.20;;;22.51;26.68;101000.00;5020050;28;20216;-65
2023/04/25 09:24:39;;;;;;;7.37;2.87;;;17.30;40.40;;;22.44;26.21;100999.38;5032250;28;20217;-62
2023/04/25 09:27:14;;;;;;;4.43;1.83;;;17.40;38.60;;;22.24;26.68;101001.75;5034191;28;20276;-59
2023/04/25 09:29:42;;;;;;;8.83;2.17;;;17.50;38.80;;;21.89;26.34;101001.19;5016363;28;20206;-62
2023/04/25 09:32:18;;;;;;;4.20;1.80;;;17.50;38.20;;;21.16;27.14;101015.31;5030385;28;20206;-62
2023/04/25 09:34:50;;;;;;;4.40;1.50;;;17.20;38.10;;;20.41;27.44;101013.63;5030784;28;20232;-62
2023/04/25 09:37:20;;;;;;;4.20;1.23;;;16.70;37.40;;;19.79;28.32;101031.03;5031710;28;20202;-64
2023/04/25 09:39:48;;;;;;;5.80;1.70;;;16.50;38.70;;;19.36;29.33;101036.53;5033903;28;20210;-61
2023/04/25 09:42:17;;;;;;;5.73;2.13;;;16.00;40.10;;;19.11;30.68;101043.81;5031935;28;20575;-63
2023/04/25 09:44:45;;;;;;;4.00;1.83;;;15.80;42.50;;;18.87;32.30;101059.63;5032275;28;20222;-61
2023/04/25 09:47:16;;;;;;;2.47;1.83;;;15.40;45.80;;;18.83;32.70;101047.78;5032040;28;20213;-63
2023/04/25 09:49:44;;;;;;;4.47;1.90;;;15.20;46.50;;;19.09;32.60;101053.88;5045046;28;20217;-60
2023/04/25 09:52:17;;;;;;;5.93;2.00;;;15.20;46.60;;;19.46;31.89;101044.84;5033188;28;20202;-62
2023/04/25 09:54:45;;;;;;;3.27;2.03;;;15.30;46.60;;;19.85;31.75;101038.94;5026704;28;20210;-64
2023/04/25 09:57:14;;;;;;;6.93;4.03;;;15.30;46.90;;;20.59;31.38;101040.25;5031286;28;20558;-62
2023/04/25 09:59:46;;;;;;;7.03;2.70;;;15.60;47.30;;;21.26;29.82;101039.63;5031645;28;20228;-61
2023/04/25 10:02:19;;;;;;;5.17;2.47;;;15.90;46.20;;;22.07;28.75;101043.84;5034153;28;20258;-61
2023/04/25 10:04:52;;;;;;;4.72;2.25;;;16.40;44.80;;;23.54;27.07;101042.22;5027578;28;20463;-64
2023/04/25 10:07:25;;;;;;;9.87;2.90;;;16.90;43.30;;;24.86;23.59;101042.28;5017374;28;20296;-65
2023/04/25 10:10:03;;;;;;;8.90;2.40;;;17.50;37.90;;;25.91;22.06;101043.75;5037573;28;20232;-64
2023/04/25 10:12:37;;;;;;;6.33;3.17;;;18.30;36.20;;;26.78;21.77;101044.28;5053169;28;20625;-59